Flight Track Log - Related Links

Times and Time Zones

All times are in EDT time to prevent confusion due to time zone crossing. See the N16112 flight status page for this flight to view local times or setup timezone preferences in your user account.


Time Position Orientation Groundspeed Altitude Reporting Facility
EDT Latitude Longitude Course Direction KTS MPH feet Rate Location/Type
Fri 08:48:23 PM 29.9614 -95.3411 97° East 160 184 700  Level Houston Center
Fri 08:49:00 PM 29.9506 -95.3136 114° Southeast 169 194 1,700 1,500 Climbing Houston Center
Fri 08:49:55 PM 29.9406 -95.2497 100° East 249 287 3,000 1,233 Climbing Houston Center
Fri 08:50:13 PM 29.9406 -95.2400 90° East 221 254 3,200 1,377 Climbing Houston Center
Fri 08:50:56 PM 29.9497 -95.1689 82° East 255 293 4,400 2,000 Climbing Houston Center
Fri 08:51:00 PM 29.9231 -94.9240 97° East  Level FlightAware Approximate
Fri 08:51:16 PM 29.9539 -95.1419 80° East 255 293 5,300  Level Houston Center
Fri 08:52:00 PM 29.9100 -94.7865 95° East  Level FlightAware Approximate
Fri 08:52:04 PM 29.9492 -95.0725 94° East 271 312 7,200  Level Houston Center
Fri 08:52:58 PM 29.9414 -94.9892 96° East 286 329 9,000 1,920 Climbing Houston Center
Fri 08:53:00 PM 29.8980 -94.6488 97° East  Level FlightAware Approximate
Fri 08:53:19 PM 29.9389 -94.9661 97° East 280 322 9,600  Level Houston Center
Fri 08:54:20 PM 29.9278 -94.8658 97° East 309 356 10,700 1,024 Climbing Houston Center
Fri 08:55:22 PM 29.9142 -94.7494 98° East 360 414 11,700 1,258 Climbing Houston Center
Fri 08:56:24 PM 29.9000 -94.6297 98° East 374 430 13,300 1,610 Climbing Houston Center
Fri 08:57:25 PM 29.8856 -94.5117 98° East 372 428 15,000 1,610 Climbing Houston Center
Fri 08:58:27 PM 29.8714 -94.3947 98° East 369 425 16,600 1,415 Climbing Houston Center
Fri 08:59:28 PM 29.8611 -94.2758 96° East 373 429 17,900 1,415 Climbing Houston Center
Fri 09:00:30 PM 29.8575 -94.1425 92° East 375 432 19,500 1,500 Climbing Houston Center
Fri 09:01:32 PM 29.8839 -94.0264 75° East 379 436 21,000 1,268 Climbing Houston Center
Fri 09:02:33 PM 29.9136 -93.9083 74° East 385 443 22,100 1,024 Climbing Houston Center
Fri 09:03:35 PM 29.9433 -93.7853 74° East 399 459 23,100 1,073 Climbing Houston Center
Fri 09:04:36 PM 29.9806 -93.6347 74° East 411 473 24,300 1,082 Climbing Houston Center
Fri 09:05:37 PM 30.0111 -93.5056 75° East 420 483 25,300 976 Climbing Houston Center
Fri 09:06:39 PM 30.0431 -93.3761 74° East 424 488 26,300 1,220 Climbing Houston Center
Fri 09:07:40 PM 30.0742 -93.2492 74° East 418 481 27,800 1,463 Climbing Houston Center
Fri 09:08:42 PM 30.1044 -93.1239 74° East 412 474 29,300 1,366 Climbing Houston Center
Fri 09:09:43 PM 30.1325 -93.0014 75° East 399 459 30,600 1,220 Climbing Houston Center
Fri 09:10:45 PM 30.1681 -92.8558 74° East 396 456 31,800 1,073 Climbing Houston Center
Fri 09:11:46 PM 30.1972 -92.7314 75° East 399 459 32,800 984 Climbing Houston Center
Fri 09:12:47 PM 30.2267 -92.6075 75° East 401 461 33,800 976 Climbing Houston Center
Fri 09:13:49 PM 30.2564 -92.4844 74° East 401 461 34,800 585 Climbing Houston Center
Fri 09:14:50 PM 30.2847 -92.3611 75° East 398 458 35,000 98 Climbing Houston Center
Fri 09:15:52 PM 30.3156 -92.2286 75° East 412 474 35,000  Level Houston Center
Fri 09:16:53 PM 30.3492 -92.0914 74° East 436 502 35,000  Level Houston Center
Fri 09:17:55 PM 30.3814 -91.9478 75° East 457 526 35,000  Level Houston Center
Fri 09:18:56 PM 30.4222 -91.7719 75° East 471 542 35,000  Level Houston Center
Fri 09:19:58 PM 30.4583 -91.6181 75° East 483 556 35,000  Level Houston Center
Fri 09:20:59 PM 30.4917 -91.4683 75° East 490 564 35,000  Level Houston Center
Fri 09:22:00 PM 30.5275 -91.3119 75° East 492 566 35,000  Level Houston Center
Fri 09:23:02 PM 30.5639 -91.1572 75° East 495 570 35,000  Level Houston Center
Fri 09:24:03 PM 30.5964 -91.0042 76° East 491 565 35,000  Level Houston Center
Fri 09:25:05 PM 30.6314 -90.8492 75° East 493 567 35,000  Level Houston Center
Fri 09:26:06 PM 30.6661 -90.6933 75° East 497 572 35,000  Level Houston Center
Fri 09:27:07 PM 30.6994 -90.5378 76° East 496 571 35,000  Level Houston Center
Fri 09:28:09 PM 30.7347 -90.3808 75° East 499 574 35,000  Level Houston Center
Fri 09:29:10 PM 30.7678 -90.2256 76° East 496 571 35,000  Level Houston Center
Fri 09:30:11 PM 30.8078 -90.0367 76° East 497 572 35,000  Level Houston Center
Fri 09:31:13 PM 30.8425 -89.8789 76° East 499 574 35,000  Level Houston Center
Fri 09:32:14 PM 30.8753 -89.7219 76° East 497 572 35,000  Level Houston Center
Fri 09:33:15 PM 30.9089 -89.5650 76° East 497 572 35,000 -49 Level Houston Center
Fri 09:34:16 PM 30.9469 -89.4097 74° East 495 570 34,900  Descending Houston Center
Fri 09:35:17 PM 31.0086 -89.2664 63° Northeast 494 568 35,000 49 Climbing Houston Center
Fri 09:36:19 PM 31.0692 -89.1231 64° Northeast 491 565 35,000  Level Houston Center
Fri 09:37:20 PM 31.1297 -88.9808 64° Northeast 490 564 35,000  Level Houston Center
Fri 09:38:21 PM 31.1889 -88.8403 64° Northeast 493 567 35,000  Level Houston Center
Fri 09:39:22 PM 31.2506 -88.6972 63° Northeast 490 564 35,000  Level Houston Center
Fri 09:40:23 PM 31.3111 -88.5531 64° Northeast 489 563 35,000  Level Houston Center
Fri 09:41:24 PM 31.3728 -88.4094 63° Northeast 489 563 35,000  Level Houston Center
Fri 09:41:53 PM 31.4117 -88.3208 63° Northeast 483 556 35,000  Level Atlanta Center
Fri 09:42:53 PM 31.4706 -88.1803 64° Northeast 483 556 35,000  Level Atlanta Center
Fri 09:43:53 PM 31.5317 -88.0344 64° Northeast 483 556 35,000  Level Atlanta Center
Fri 09:44:53 PM 31.5928 -87.8908 63° Northeast 483 556 35,000  Level Atlanta Center
Fri 09:45:53 PM 31.6514 -87.7494 64° Northeast 483 556 35,000  Level Atlanta Center
Fri 09:46:53 PM 31.7097 -87.6078 64° Northeast 483 556 35,000  Level Atlanta Center
Fri 09:47:53 PM 31.7681 -87.4633 65° Northeast 483 556 35,000  Level Atlanta Center
Fri 09:48:53 PM 31.8150 -87.3481 64° Northeast 483 556 35,000  Level Atlanta Center
Fri 09:49:53 PM 31.8756 -87.1911 66° East 477 549 35,000  Level Atlanta Center
Fri 09:50:53 PM 31.9311 -87.0489 65° Northeast 477 549 35,000  Level Atlanta Center
Fri 09:51:53 PM 31.9889 -86.9039 65° Northeast 477 549 35,000  Level Atlanta Center
Fri 09:52:53 PM 32.0464 -86.7611 65° Northeast 477 549 35,000  Level Atlanta Center
Fri 09:53:53 PM 32.1144 -86.6039 63° Northeast 477 549 35,000  Level Atlanta Center
Fri 09:54:53 PM 32.1736 -86.4633 64° Northeast 482 555 35,000  Level Atlanta Center
Fri 09:55:53 PM 32.2244 -86.3247 67° East 471 542 35,000  Level Atlanta Center
Fri 09:56:53 PM 32.2850 -86.1958 61° Northeast 477 549 35,000  Level Atlanta Center
Fri 09:57:53 PM 32.3519 -86.0622 59° Northeast 472 543 35,000  Level Atlanta Center
Fri 09:58:53 PM 32.4231 -85.9261 58° Northeast 477 549 35,000  Level Atlanta Center
Fri 09:59:53 PM 32.5025 -85.7728 58° Northeast 489 563 35,000  Level Atlanta Center
Fri 10:00:53 PM 32.5692 -85.6383 60° Northeast 489 563 35,000  Level Atlanta Center
Fri 10:01:53 PM 32.6397 -85.5017 58° Northeast 483 556 35,000  Level Atlanta Center
Fri 10:02:53 PM 32.7081 -85.3619 60° Northeast 483 556 35,000  Level Atlanta Center
Fri 10:03:53 PM 32.7761 -85.2247 59° Northeast 478 550 35,000  Level Atlanta Center
Fri 10:04:53 PM 32.8464 -85.0947 57° Northeast 473 544 35,000  Level Atlanta Center
Fri 10:05:53 PM 32.9142 -84.9544 60° Northeast 478 550 35,000  Level Atlanta Center
Fri 10:06:53 PM 32.9839 -84.8164 59° Northeast 483 556 35,000  Level Atlanta Center
Fri 10:07:53 PM 33.0494 -84.6783 60° Northeast 478 550 35,000  Level Atlanta Center
Fri 10:08:53 PM 33.1192 -84.5375 59° Northeast 484 557 35,000  Level Atlanta Center
Fri 10:09:53 PM 33.1883 -84.3986 59° Northeast 479 551 35,000  Level Atlanta Center
Fri 10:10:53 PM 33.2556 -84.2575 60° Northeast 479 551 35,000  Level Atlanta Center
Fri 10:11:53 PM 33.3244 -84.1158 60° Northeast 479 551 35,000  Level Atlanta Center
Fri 10:12:53 PM 33.3892 -83.9767 61° Northeast 479 551 35,000  Level Atlanta Center
Fri 10:13:53 PM 33.4581 -83.8397 59° Northeast 479 551 35,000  Level Atlanta Center
Fri 10:14:53 PM 33.5244 -83.7025 60° Northeast 474 545 35,000  Level Atlanta Center
Fri 10:15:53 PM 33.5825 -83.5825 60° Northeast 468 539 35,000  Level Atlanta Center
Fri 10:16:53 PM 33.6489 -83.4447 60° Northeast 468 539 35,000  Level Atlanta Center
Fri 10:17:53 PM 33.7147 -83.3069 60° Northeast 463 533 35,000  Level Atlanta Center
Fri 10:18:53 PM 33.7828 -83.1639 60° Northeast 471 542 35,000  Level Atlanta Center
Fri 10:19:53 PM 33.8464 -83.0208 62° Northeast 477 549 35,000  Level Atlanta Center
Fri 10:20:53 PM 33.9161 -82.8797 59° Northeast 484 557 35,000  Level Atlanta Center
Fri 10:21:53 PM 33.9814 -82.7411 60° Northeast 484 557 35,000  Level Atlanta Center
Fri 10:22:53 PM 34.0467 -82.5947 62° Northeast 484 557 35,000  Level Atlanta Center
Fri 10:23:53 PM 34.1178 -82.4406 61° Northeast 478 550 35,000  Level Atlanta Center
Fri 10:24:53 PM 34.1867 -82.2961 60° Northeast 478 550 35,000  Level Atlanta Center
Fri 10:25:53 PM 34.2536 -82.1539 60° Northeast 478 550 35,000  Level Atlanta Center
Fri 10:26:53 PM 34.3244 -82.0139 58° Northeast 484 557 35,000  Level Atlanta Center
Fri 10:27:53 PM 34.3931 -81.8739 59° Northeast 484 557 35,000  Level Atlanta Center
Fri 10:28:53 PM 34.4614 -81.7336 59° Northeast 489 563 35,000  Level Atlanta Center
Fri 10:29:53 PM 34.5317 -81.5931 59° Northeast 482 555 35,000  Level Atlanta Center
Fri 10:30:53 PM 34.6019 -81.4572 58° Northeast 482 555 35,000  Level Atlanta Center
Fri 10:31:53 PM 34.6617 -81.3292 60° Northeast 482 555 35,000  Level Atlanta Center
Fri 10:32:53 PM 34.7317 -81.1878 59° Northeast 477 549 35,000  Level Atlanta Center
Fri 10:33:53 PM 34.8014 -81.0489 59° Northeast 477 549 35,000  Level Atlanta Center
Fri 10:34:53 PM 34.8708 -80.9044 60° Northeast 486 559 35,000  Level Atlanta Center
Fri 10:35:53 PM 34.9458 -80.7472 60° Northeast 486 559 35,000  Level Atlanta Center
Fri 10:36:53 PM 35.0131 -80.6050 60° Northeast 486 559 35,000  Level Atlanta Center
Fri 10:37:53 PM 35.0839 -80.4600 59° Northeast 486 559 35,000  Level Atlanta Center
Fri 10:38:53 PM 35.1528 -80.3197 59° Northeast 486 559 35,000  Level Atlanta Center
Fri 10:40:29 PM 35.2622 -80.0817 61° Northeast 493 567 35,000  Level Washington Center
Fri 10:41:29 PM 35.3253 -79.9581 58° Northeast 487 560 35,000  Level Washington Center
Fri 10:42:30 PM 35.3958 -79.7961 62° Northeast 487 560 35,000  Level Washington Center
Fri 10:43:31 PM 35.4450 -79.6383 69° East 488 562 35,000 -555 Level Washington Center
Fri 10:44:29 PM 35.4919 -79.4772 70° East 493 567 33,900 -1,311 Descending Washington Center
Fri 10:45:30 PM 35.5369 -79.3161 71° East 493 567 32,400 -1,500 Descending Washington Center
Fri 10:46:29 PM 35.5833 -79.1600 70° East 493 567 30,900 -1,462 Descending Washington Center
Fri 10:47:29 PM 35.6256 -79.0033 72° East 485 558 29,500 -950 Descending Washington Center
Fri 10:48:29 PM 35.6697 -78.8417 71° East 485 558 29,000 -250 Descending Washington Center
Fri 10:49:29 PM 35.7156 -78.6822 70° East 485 558 29,000  Level Washington Center
Fri 10:50:29 PM 35.7592 -78.5203 72° East 491 565 29,000 -443 Level Washington Center
Fri 10:51:31 PM 35.8028 -78.3606 71° East 496 571 28,100 -1,180 Descending Washington Center
Fri 10:52:31 PM 35.8461 -78.1981 72° East 496 571 26,600 -1,537 Descending Washington Center
Fri 10:53:32 PM 35.8889 -78.0431 71° East 490 564 25,000 -1,563 Descending Washington Center
Fri 10:54:30 PM 35.9294 -77.8903 72° East 477 549 23,500 -1,008 Descending Washington Center
Fri 10:55:31 PM 35.9700 -77.7375 72° East 471 542 23,000 -298 Descending Washington Center
Fri 10:56:31 PM 36.0308 -77.6006 61° Northeast 461 531 22,900 -1,300 Descending Washington Center
Fri 10:57:31 PM 36.0936 -77.4633 60° Northeast 451 519 20,400 -2,237 Descending Washington Center
Fri 10:58:29 PM 36.1581 -77.3336 58° Northeast 446 513 18,500 -1,322 Descending Washington Center
Fri 10:59:29 PM 36.2139 -77.2086 61° Northeast 428 493 17,800 -942 Descending Washington Center
Fri 11:00:30 PM 36.2697 -77.0861 60° Northeast 416 479 16,600 -1,227 Descending Washington Center
Fri 11:00:57 PM 36.2933 -77.0378 59° Northeast 410 472 16,000 -1,347 Descending Washington Center
Fri 11:01:19 PM 36.3211 -76.9842 57° Northeast 411 473 15,500 -1,084 Descending Washington Center
Fri 11:02:20 PM 36.3831 -76.8664 57° Northeast 405 466 14,500 -909 Descending Washington Center
Fri 11:03:31 PM 36.4508 -76.7592 52° Northeast 376 433 13,500 -1,171 Descending Washington Center
Fri 11:04:23 PM 36.4994 -76.6953 47° Northeast 301 346 12,100 -1,500 Descending Washington Center
Fri 11:05:23 PM 36.5542 -76.6211 47° Northeast 274 315 10,700 -1,438 Descending Washington Center
Fri 11:06:24 PM 36.5986 -76.5569 49° Northeast 245 282 9,200 -1,300 Descending Washington Center
Fri 11:07:23 PM 36.6611 -76.5628 356° North 216 249 8,100 -1,450 Descending Washington Center
Fri 11:08:24 PM 36.7011 -76.5142 44° Northeast 231 266 6,300 -1,548 Descending Washington Center
Fri 11:09:27 PM 36.7186 -76.4367 74° East 226 260 4,900 -1,122 Descending Washington Center
Fri 11:10:27 PM 36.7439 -76.3722 64° Northeast 198 228 4,000 -958 Descending Washington Center
Fri 11:11:26 PM 36.7756 -76.3181 54° Northeast 185 213 3,000 -950 Descending Washington Center
Fri 11:12:27 PM 36.8069 -76.2897 36° Northeast 131 151 2,100 -885 Descending Washington Center

Login

Don't have an account? Register now (free) for customized features, flight alerts, and more!